createdAt,value
2023-03-29T00:00:01.064Z,67.5
2023-03-29T00:05:00.782Z,67.5
2023-03-29T00:10:01.042Z,188.4
2023-03-29T00:15:00.729Z,185.5
2023-03-29T00:20:00.703Z,202.3
2023-03-29T00:25:00.789Z,202.5
2023-03-29T00:30:00.766Z,202.5
2023-03-29T00:35:00.712Z,202.5
2023-03-29T00:40:00.774Z,202.5
2023-03-29T00:45:00.834Z,202.5
2023-03-29T00:50:00.686Z,202.5
2023-03-29T00:55:00.686Z,202.5
2023-03-29T01:00:00.786Z,202.5
2023-03-29T01:05:00.686Z,190.1
2023-03-29T01:10:00.741Z,180.1
2023-03-29T01:15:00.740Z,173.2
2023-03-29T01:20:00.702Z,158.2
2023-03-29T01:25:00.683Z,178.0
2023-03-29T01:30:00.746Z,180.7
2023-03-29T01:35:00.730Z,165.8
2023-03-29T01:40:00.805Z,170.7
2023-03-29T01:45:00.649Z,170.1
2023-03-29T01:50:00.728Z,175.1
2023-03-29T01:55:00.652Z,168.1
2023-03-29T02:00:00.783Z,172.9
2023-03-29T02:05:00.705Z,163.9
2023-03-29T02:10:00.728Z,161.1
2023-03-29T02:15:00.758Z,170.3
2023-03-29T02:20:00.870Z,161.5
2023-03-29T02:25:00.705Z,164.3
2023-03-29T02:30:00.729Z,159.5
2023-03-29T02:35:00.679Z,164.4
2023-03-29T02:40:00.755Z,172.3
2023-03-29T02:45:00.730Z,163.3
2023-03-29T02:50:00.775Z,160.9
2023-03-29T02:55:00.877Z,176.9
2023-03-29T03:00:00.713Z,161.1
2023-03-29T03:05:00.681Z,162.9
2023-03-29T03:10:00.738Z,166.8
2023-03-29T03:15:00.741Z,186.8
2023-03-29T03:20:00.820Z,170.7
2023-03-29T03:25:00.676Z,166.3
2023-03-29T03:30:00.699Z,172.4
2023-03-29T03:35:00.704Z,185.4
2023-03-29T03:40:00.796Z,178.5
2023-03-29T03:45:00.675Z,180.6
2023-03-29T03:50:00.716Z,175.1
2023-03-29T03:55:00.713Z,176.3
2023-03-29T04:00:00.790Z,165.0
2023-03-29T04:05:00.796Z,155.4
2023-03-29T04:10:00.713Z,157.6
2023-03-29T04:15:00.689Z,179.5
2023-03-29T04:20:00.746Z,156.3
2023-03-29T04:25:00.726Z,175.9
2023-03-29T04:30:00.956Z,174.6
2023-03-29T04:35:00.776Z,159.6
2023-03-29T04:40:00.740Z,168.5
2023-03-29T04:45:00.992Z,168.6
2023-03-29T04:50:00.735Z,168.0
2023-03-29T04:55:00.670Z,169.7
2023-03-29T05:00:00.707Z,168.6
2023-03-29T05:05:00.774Z,170.7
2023-03-29T05:10:00.675Z,157.7
2023-03-29T05:15:00.659Z,163.4
2023-03-29T05:20:00.738Z,166.9
2023-03-29T05:25:00.664Z,165.5
2023-03-29T05:30:00.745Z,157.3
2023-03-29T05:35:00.706Z,157.2
2023-03-29T05:40:06.726Z,175.0
2023-03-29T05:45:00.785Z,177.8
2023-03-29T05:50:00.789Z,172.1
2023-03-29T05:55:01.226Z,175.7
2023-03-29T06:00:00.780Z,163.1
2023-03-29T06:05:01.091Z,170.3
2023-03-29T06:10:00.794Z,171.8
2023-03-29T06:15:00.721Z,173.2
2023-03-29T06:20:00.708Z,164.8
2023-03-29T06:25:00.716Z,183.7
2023-03-29T06:30:00.708Z,170.4
2023-03-29T06:35:00.685Z,173.6
2023-03-29T06:40:00.757Z,187.7
2023-03-29T06:45:00.665Z,183.3
2023-03-29T06:50:00.800Z,180.9
2023-03-29T06:55:00.752Z,170.8
2023-03-29T07:00:00.812Z,172.6
2023-03-29T07:05:00.670Z,175.3
2023-03-29T07:10:00.829Z,184.4
2023-03-29T07:15:00.815Z,170.3
2023-03-29T07:20:00.758Z,165.9
2023-03-29T07:25:00.722Z,166.7
2023-03-29T07:30:01.098Z,169.1
2023-03-29T07:35:00.685Z,175.3
2023-03-29T07:40:00.728Z,189.5
2023-03-29T07:45:01.111Z,170.9
2023-03-29T07:50:00.731Z,178.5
2023-03-29T07:55:00.681Z,195.2
2023-03-29T08:00:00.775Z,190.2
2023-03-29T08:05:01.039Z,199.5
2023-03-29T08:10:00.829Z,194.0
2023-03-29T08:15:00.656Z,186.2
2023-03-29T08:20:00.812Z,181.9
2023-03-29T08:25:00.771Z,181.5
2023-03-29T08:30:00.739Z,205.0
2023-03-29T08:35:00.672Z,190.8
2023-03-29T08:40:00.723Z,215.6
2023-03-29T08:45:00.720Z,206.2
2023-03-29T08:50:00.761Z,204.3
2023-03-29T08:55:00.902Z,176.2
2023-03-29T09:00:00.750Z,179.9
2023-03-29T09:05:00.803Z,187.8
2023-03-29T09:10:00.767Z,201.9
2023-03-29T09:15:00.928Z,199.5
2023-03-29T09:20:00.706Z,211.7
2023-03-29T09:25:00.714Z,228.3
2023-03-29T09:30:00.732Z,209.4
2023-03-29T09:35:00.686Z,210.3
2023-03-29T09:40:05.476Z,191.1
2023-03-29T09:45:00.681Z,191.7
2023-03-29T09:50:00.771Z,199.3
2023-03-29T09:55:01.521Z,227.9
2023-03-29T10:00:00.711Z,201.0
2023-03-29T10:05:01.331Z,186.5
2023-03-29T10:10:00.715Z,203.0
2023-03-29T10:15:01.014Z,188.6
2023-03-29T10:20:05.640Z,197.6
2023-03-29T10:25:00.765Z,199.8
2023-03-29T10:30:00.723Z,208.5
2023-03-29T10:35:00.883Z,182.7
2023-03-29T10:40:00.682Z,210.1
2023-03-29T10:45:00.801Z,200.5
2023-03-29T10:50:00.698Z,192.3
2023-03-29T10:55:00.875Z,206.3
2023-03-29T11:00:00.779Z,216.3
2023-03-29T11:05:00.669Z,189.7
2023-03-29T11:10:00.742Z,191.9
2023-03-29T11:15:00.734Z,209.4
2023-03-29T11:20:05.546Z,193.1
2023-03-29T11:25:00.671Z,202.0
2023-03-29T11:30:00.765Z,177.5
2023-03-29T11:35:00.741Z,193.1
2023-03-29T11:40:00.869Z,201.6
2023-03-29T11:45:00.701Z,188.3
2023-03-29T11:50:00.823Z,187.5
2023-03-29T11:55:00.698Z,198.0
2023-03-29T12:00:00.718Z,204.6
2023-03-29T12:05:00.692Z,225.6
2023-03-29T12:10:01.129Z,194.8
2023-03-29T12:15:00.761Z,207.0
2023-03-29T12:20:00.824Z,199.4
2023-03-29T12:25:00.675Z,203.8
2023-03-29T12:30:00.756Z,191.0
2023-03-29T12:35:01.432Z,207.0
2023-03-29T12:40:00.717Z,192.4
2023-03-29T12:45:00.739Z,195.4
2023-03-29T12:50:00.739Z,227.3
2023-03-29T12:55:00.702Z,210.2
2023-03-29T13:00:00.695Z,226.0
2023-03-29T13:05:00.875Z,201.9
2023-03-29T13:10:00.709Z,210.1
2023-03-29T13:15:00.808Z,225.6
2023-03-29T13:20:00.718Z,223.3
2023-03-29T13:25:00.722Z,200.3
2023-03-29T13:30:00.690Z,212.4
2023-03-29T13:35:00.701Z,204.9
2023-03-29T13:40:00.737Z,204.0
2023-03-29T13:45:00.790Z,212.4
2023-03-29T13:50:00.735Z,198.1
2023-03-29T13:55:00.719Z,203.1
2023-03-29T14:00:00.786Z,201.0
2023-03-29T14:05:00.756Z,194.5
2023-03-29T14:10:00.731Z,187.5
2023-03-29T14:15:00.836Z,188.0
2023-03-29T14:20:01.112Z,196.3
2023-03-29T14:25:00.660Z,193.1
2023-03-29T14:30:00.749Z,193.7
2023-03-29T14:35:00.716Z,182.5
2023-03-29T14:40:00.823Z,195.8
2023-03-29T14:45:00.706Z,201.3
2023-03-29T14:50:00.913Z,194.7
2023-03-29T14:55:01.072Z,197.7
2023-03-29T15:00:00.736Z,179.5
2023-03-29T15:05:00.777Z,191.3
2023-03-29T15:10:01.216Z,197.9
2023-03-29T15:15:00.712Z,195.6
2023-03-29T15:20:01.245Z,205.1
2023-03-29T15:25:00.670Z,208.1
2023-03-29T15:30:00.704Z,179.4
2023-03-29T15:35:00.693Z,199.9
2023-03-29T15:40:00.700Z,176.9
2023-03-29T15:45:00.751Z,167.8
2023-03-29T15:50:00.732Z,181.4
2023-03-29T15:55:00.694Z,183.4
2023-03-29T16:00:00.692Z,182.4
2023-03-29T16:05:00.654Z,180.7
2023-03-29T16:10:00.712Z,189.8
2023-03-29T16:15:00.820Z,174.3
2023-03-29T16:20:00.784Z,163.1
2023-03-29T16:25:00.715Z,180.1
2023-03-29T16:30:00.763Z,169.1
2023-03-29T16:35:00.716Z,181.5
2023-03-29T16:40:00.749Z,185.3
2023-03-29T16:45:00.759Z,177.4
2023-03-29T16:50:01.193Z,181.9
2023-03-29T16:55:00.684Z,175.4
2023-03-29T17:00:00.708Z,174.2
2023-03-29T17:05:00.680Z,162.7
2023-03-29T17:10:00.772Z,171.7
2023-03-29T17:15:01.138Z,176.3
2023-03-29T17:20:00.691Z,191.1
2023-03-29T17:25:00.675Z,178.0
2023-03-29T17:30:01.181Z,167.9
2023-03-29T17:35:00.732Z,181.0
2023-03-29T17:40:00.752Z,190.2
2023-03-29T17:45:00.645Z,182.9
2023-03-29T17:50:00.697Z,179.7
2023-03-29T17:55:00.747Z,179.9
2023-03-29T18:00:00.726Z,158.2
2023-03-29T18:05:00.684Z,177.9
2023-03-29T18:10:00.723Z,163.0
2023-03-29T18:15:00.686Z,168.3
2023-03-29T18:20:00.732Z,172.6
2023-03-29T18:25:00.661Z,177.6
2023-03-29T18:30:00.728Z,183.8
2023-03-29T18:35:00.717Z,179.8
2023-03-29T18:40:00.693Z,174.4
2023-03-29T18:45:00.693Z,179.9
2023-03-29T18:50:00.868Z,191.0
2023-03-29T18:55:00.666Z,184.8
2023-03-29T19:00:00.747Z,185.0
2023-03-29T19:05:00.720Z,173.6
2023-03-29T19:10:00.699Z,179.1
2023-03-29T19:15:00.691Z,169.7
2023-03-29T19:20:00.993Z,162.6
2023-03-29T19:25:00.811Z,178.4
2023-03-29T19:30:00.751Z,171.0
2023-03-29T19:35:00.726Z,173.0
2023-03-29T19:40:00.706Z,175.4
2023-03-29T19:45:00.654Z,177.9
2023-03-29T19:50:00.737Z,178.4
2023-03-29T19:55:00.664Z,170.5
2023-03-29T20:00:00.715Z,179.9
2023-03-29T20:05:00.728Z,159.3
2023-03-29T20:10:00.714Z,199.4
2023-03-29T20:15:00.732Z,182.8
2023-03-29T20:20:00.713Z,180.0
2023-03-29T20:25:00.658Z,181.1
2023-03-29T20:30:00.701Z,180.0
2023-03-29T20:35:00.687Z,180.0
2023-03-29T20:40:00.713Z,190.7
2023-03-29T20:45:00.745Z,176.2
2023-03-29T20:50:00.727Z,180.0
2023-03-29T20:55:00.647Z,181.5
2023-03-29T21:00:00.743Z,171.9
2023-03-29T21:05:00.692Z,173.5
2023-03-29T21:10:00.696Z,179.5
2023-03-29T21:15:00.718Z,180.4
2023-03-29T21:20:00.776Z,179.6
2023-03-29T21:25:00.729Z,176.0
2023-03-29T21:30:00.736Z,174.2
2023-03-29T21:35:00.743Z,179.6
2023-03-29T21:40:00.855Z,174.8
2023-03-29T21:45:00.743Z,177.9
2023-03-29T21:50:00.777Z,174.8
2023-03-29T21:55:00.735Z,171.2
2023-03-29T22:00:00.822Z,179.8
2023-03-29T22:05:00.696Z,178.4
2023-03-29T22:10:00.722Z,180.1
2023-03-29T22:15:00.740Z,176.5
2023-03-29T22:20:00.736Z,167.2
2023-03-29T22:25:00.755Z,174.4
2023-03-29T22:30:00.694Z,180.0
2023-03-29T22:35:00.759Z,159.0
2023-03-29T22:40:00.753Z,179.8
2023-03-29T22:45:00.658Z,158.9
2023-03-29T22:50:00.717Z,180.0
2023-03-29T22:55:00.666Z,178.8
2023-03-29T23:00:00.703Z,177.3
2023-03-29T23:05:00.733Z,170.4
2023-03-29T23:10:00.709Z,160.3
2023-03-29T23:15:00.823Z,167.9
2023-03-29T23:20:00.993Z,161.0
2023-03-29T23:25:00.729Z,172.2
2023-03-29T23:30:00.724Z,171.0
2023-03-29T23:35:00.791Z,159.8
2023-03-29T23:40:00.797Z,162.9
2023-03-29T23:45:00.788Z,157.5
2023-03-29T23:50:00.781Z,158.1
2023-03-29T23:55:00.999Z,157.6
